Ostrander, Minnesota
Current Conditions -  °F | °C
As of 2:36 AM on Sunday 26 Oct 2014 (Local Time) from KFKA Reporting Station
Clear Clear  
Wind Chill:   Ceiling: Unl
Heat Index:   Visibility: 10mi
Dew Point: -3°   Wind: 3mph
Humidity: 55%   Direction: 360°N
Pressure: 30.05"   Gusts: NA
Location:  43.61°N, 92.43°W
Report Text: KFKA 260736Z AUTO 36003KT 10SM CLR 06/M03 A3005 RMK AO2 T00561028
Loading
Personal Weather Stations






























Interactive Weather Map
Tropical Storm Tracking
New forecast layout! Learn more

10-Day Weather Forecast

Advertisements
Track Severe Weather on mobile